Time;durP1;ratioP1;P1;durP2;ratioP2;P2;SDS_P1;SDS_P2;PMS_P1;PMS_P2;Temp;Humidity;BMP_temperature;BMP_pressure;BME280_temperature;BME280_humidity;BME280_pressure;Samples;Min_cycle;Max_cycle;Signal;HPM_P1;HPM_P2
2023/07/09 00:00:20;;;;;;;6.30;5.70;;;22.20;1.00;;;;;;5095284;28;20447;-51
2023/07/09 00:02:46;;;;;;;6.87;5.70;;;22.10;1.00;;;;;;5097506;28;20177;-53
2023/07/09 00:05:15;;;;;;;7.17;5.97;;;22.10;1.00;;;;;;5096546;28;20275;-53
2023/07/09 00:07:40;;;;;;;6.83;6.07;;;22.10;1.00;;;;;;5080085;28;20210;-53
2023/07/09 00:10:17;;;;;;;7.50;6.13;;;22.00;1.00;;;;;;5078829;28;20640;-53
2023/07/09 00:12:43;;;;;;;7.97;5.50;;;22.00;11.60;;;;;;5097466;28;20183;-52
2023/07/09 00:15:11;;;;;;;5.93;5.33;;;21.90;27.20;;;;;;5097627;28;20704;-56
2023/07/09 00:17:39;;;;;;;7.27;5.80;;;21.90;42.20;;;;;;5097640;28;20501;-52
2023/07/09 00:20:13;;;;;;;6.00;5.40;;;21.90;50.40;;;;;;5097262;28;20847;-52
2023/07/09 00:22:39;;;;;;;9.47;5.90;;;21.80;55.30;;;;;;5098027;28;20847;-50
2023/07/09 00:25:05;;;;;;;7.00;5.40;;;21.90;84.20;;;;;;5097372;28;20743;-50
2023/07/09 00:27:31;;;;;;;8.07;6.57;;;21.80;98.10;;;;;;5097943;28;20434;-54
2023/07/09 00:29:56;;;;;;;6.83;6.13;;;21.80;97.70;;;;;;5097778;28;20502;-52
2023/07/09 00:32:22;;;;;;;6.57;5.47;;;21.80;95.70;;;;;;5098622;28;20184;-52
2023/07/09 00:34:49;;;;;;;6.30;5.70;;;21.80;94.00;;;;;;5097494;28;20203;-52
2023/07/09 00:37:17;;;;;;;6.67;5.60;;;21.70;99.90;;;;;;5098739;28;20184;-52
2023/07/09 00:39:43;;;;;;;6.57;6.07;;;21.70;99.90;;;;;;5097541;28;20772;-51
2023/07/09 00:42:17;;;;;;;6.37;5.77;;;21.70;99.90;;;;;;5097222;28;20816;-52
2023/07/09 00:44:47;;;;;;;7.13;6.50;;;21.70;99.90;;;;;;5096883;28;20685;-52
2023/07/09 00:47:18;;;;;;;7.47;5.67;;;21.70;99.90;;;;;;5098560;28;20827;-52
2023/07/09 00:49:48;;;;;;;7.63;5.57;;;21.70;99.90;;;;;;5096093;28;20462;-50
2023/07/09 00:52:35;;;;;;;7.70;5.67;;;21.60;99.90;;;;;;5096488;28;20427;-53
2023/07/09 00:55:10;;;;;;;7.87;6.30;;;21.60;99.90;;;;;;5095483;28;20451;-51
2023/07/09 00:57:38;;;;;;;6.40;5.73;;;21.60;99.90;;;;;;5096485;28;20426;-55
2023/07/09 01:00:12;;;;;;;7.17;5.47;;;21.60;99.90;;;;;;5096111;28;20434;-52
2023/07/09 01:02:44;;;;;;;7.23;6.33;;;21.60;99.90;;;;;;5096836;28;20410;-50
2023/07/09 01:05:12;;;;;;;6.03;5.43;;;21.50;99.90;;;;;;5095174;28;20413;-49
2023/07/09 01:07:39;;;;;;;6.43;5.90;;;21.50;99.90;;;;;;5093884;28;20469;-54
2023/07/09 01:10:04;;;;;;;7.03;6.23;;;21.50;99.90;;;;;;5094791;28;20474;-50
2023/07/09 01:12:30;;;;;;;6.73;6.20;;;21.50;99.90;;;;;;5095529;28;20461;-50
2023/07/09 01:14:58;;;;;;;9.13;6.67;;;21.50;99.90;;;;;;5093644;28;20830;-51
2023/07/09 01:17:27;;;;;;;8.83;6.63;;;21.40;99.90;;;;;;5094220;28;20410;-50
2023/07/09 01:19:53;;;;;;;6.70;6.00;;;21.40;99.90;;;;;;5092843;28;20585;-51
2023/07/09 01:22:20;;;;;;;6.60;6.00;;;21.40;99.90;;;;;;5093466;28;20434;-52
2023/07/09 01:24:48;;;;;;;11.63;6.07;;;21.40;99.90;;;;;;5093904;28;20192;-52
2023/07/09 01:27:14;;;;;;;7.00;6.30;;;21.40;99.90;;;;;;5094624;28;20517;-50
2023/07/09 01:29:40;;;;;;;6.77;6.17;;;21.30;99.90;;;;;;5093179;28;21096;-51
2023/07/09 01:32:06;;;;;;;6.53;5.93;;;21.30;99.90;;;;;;5091425;28;20549;-50
2023/07/09 01:34:32;;;;;;;7.37;6.17;;;21.30;99.90;;;;;;5094075;28;20538;-51
2023/07/09 01:36:58;;;;;;;8.53;6.57;;;21.30;1.00;;;;;;5095893;28;20473;-53
2023/07/09 01:39:30;;;;;;;12.50;6.10;;;21.20;1.00;;;;;;5095997;28;20422;-51
2023/07/09 01:41:56;;;;;;;6.77;6.10;;;21.20;1.00;;;;;;5094781;28;20172;-51
2023/07/09 01:44:23;;;;;;;6.20;5.60;;;21.20;1.00;;;;;;5093839;28;20517;-51
2023/07/09 01:46:48;;;;;;;6.47;5.87;;;21.20;1.00;;;;;;5094881;28;20430;-50
2023/07/09 01:49:14;;;;;;;6.77;6.07;;;21.20;1.00;;;;;;5094276;28;20495;-52
2023/07/09 01:51:40;;;;;;;6.10;5.50;;;21.20;1.00;;;;;;5094074;28;20252;-52
2023/07/09 01:54:06;;;;;;;6.33;5.73;;;21.10;1.00;;;;;;5093252;28;20425;-51
2023/07/09 01:56:32;;;;;;;6.10;5.50;;;21.10;1.00;;;;;;5093669;28;20176;-54
2023/07/09 01:59:01;;;;;;;7.03;6.23;;;21.10;1.00;;;;;;5093146;28;20201;-51
2023/07/09 02:01:30;;;;;;;6.10;5.50;;;21.10;1.00;;;;;;5093393;28;20184;-51
2023/07/09 02:03:55;;;;;;;7.20;6.50;;;21.00;1.00;;;;;;5094472;28;20422;-50
2023/07/09 02:06:24;;;;;;;7.50;6.27;;;21.00;1.00;;;;;;5094043;28;20437;-53
2023/07/09 02:08:49;;;;;;;6.33;5.53;;;21.00;1.00;;;;;;5095382;28;20613;-54
2023/07/09 02:11:15;;;;;;;7.73;5.50;;;21.00;1.00;;;;;;5096057;28;20469;-52
2023/07/09 02:13:40;;;;;;;6.23;5.53;;;21.00;1.00;;;;;;5096383;28;20195;-55
2023/07/09 02:16:06;;;;;;;6.87;6.17;;;21.00;1.00;;;;;;5096655;28;20199;-49
2023/07/09 02:18:32;;;;;;;6.30;5.40;;;21.00;1.00;;;;;;5095230;28;20203;-50
2023/07/09 02:20:57;;;;;;;6.47;5.20;;;21.00;1.00;;;;;;5095173;28;20270;-50
2023/07/09 02:23:27;;;;;;;7.47;5.77;;;21.00;1.00;;;;;;5095122;28;20168;-50
2023/07/09 02:25:53;;;;;;;5.87;5.37;;;21.00;1.00;;;;;;5096346;28;20189;-50
2023/07/09 02:28:18;;;;;;;6.70;5.20;;;21.00;1.00;;;;;;5095489;28;20430;-52
2023/07/09 02:30:44;;;;;;;7.13;6.30;;;20.90;1.00;;;;;;5095951;28;20224;-53
2023/07/09 02:33:10;;;;;;;6.00;5.50;;;20.90;1.00;;;;;;5095791;28;20268;-54
2023/07/09 02:35:36;;;;;;;6.10;5.43;;;20.90;1.00;;;;;;5095888;28;20472;-54
2023/07/09 02:38:02;;;;;;;6.00;5.23;;;20.90;1.00;;;;;;5094487;28;20176;-54
2023/07/09 02:40:28;;;;;;;10.77;6.53;;;20.90;1.00;;;;;;5095570;28;20187;-52
2023/07/09 02:42:54;;;;;;;7.27;5.80;;;20.90;1.00;;;;;;5095128;28;20524;-51
2023/07/09 02:45:19;;;;;;;7.00;6.30;;;20.90;1.00;;;;;;5095951;28;20456;-50
2023/07/09 02:47:45;;;;;;;5.93;5.33;;;20.90;1.00;;;;;;5095587;28;20213;-51
2023/07/09 02:50:11;;;;;;;6.20;5.60;;;20.90;1.00;;;;;;5094284;28;20600;-53
2023/07/09 02:52:37;;;;;;;7.90;6.30;;;20.80;1.00;;;;;;5094818;28;20458;-52
2023/07/09 02:55:03;;;;;;;6.77;6.00;;;20.80;1.00;;;;;;5093939;28;20188;-51
2023/07/09 02:57:28;;;;;;;6.03;5.43;;;20.80;18.40;;;;;;5093694;28;20278;-50
2023/07/09 02:59:54;;;;;;;6.63;5.83;;;20.70;11.00;;;;;;5093032;28;20659;-53
2023/07/09 03:02:19;;;;;;;6.97;6.27;;;20.70;6.00;;;;;;5093651;28;20172;-49
2023/07/09 03:04:45;;;;;;;6.20;5.60;;;20.70;15.10;;;;;;5092783;28;20276;-56
2023/07/09 03:07:10;;;;;;;8.07;5.90;;;20.70;23.70;;;;;;5092591;28;20191;-50
2023/07/09 03:09:36;;;;;;;6.40;5.80;;;20.70;72.90;;;;;;5092843;28;20184;-52
2023/07/09 03:12:02;;;;;;;7.80;7.10;;;20.70;92.90;;;;;;5094933;28;20207;-52
2023/07/09 03:14:27;;;;;;;6.77;6.10;;;20.70;99.90;;;;;;5099097;28;20272;-52
2023/07/09 03:16:53;;;;;;;6.50;5.90;;;20.70;99.90;;;;;;5099640;28;20259;-53
2023/07/09 03:19:19;;;;;;;5.50;5.00;;;20.70;99.90;;;;;;5099085;28;20218;-54
2023/07/09 03:21:45;;;;;;;6.50;5.90;;;20.60;99.90;;;;;;5098937;28;20199;-50
2023/07/09 03:24:10;;;;;;;6.77;6.07;;;20.60;99.90;;;;;;5098972;28;20427;-53
2023/07/09 03:26:36;;;;;;;6.87;6.13;;;20.50;99.90;;;;;;5099701;28;20173;-51
2023/07/09 03:29:02;;;;;;;6.43;5.80;;;20.50;99.90;;;;;;5099476;28;20239;-52
2023/07/09 03:31:29;;;;;;;7.53;6.27;;;20.50;99.90;;;;;;5099772;28;20517;-53
2023/07/09 03:33:55;;;;;;;6.43;5.80;;;20.50;99.90;;;;;;5099108;28;20173;-54
2023/07/09 03:36:20;;;;;;;7.43;6.13;;;20.50;99.90;;;;;;5098167;28;20449;-53
2023/07/09 03:38:47;;;;;;;7.10;6.20;;;20.50;99.90;;;;;;5097328;28;20170;-51
2023/07/09 03:41:12;;;;;;;7.27;6.47;;;20.50;99.90;;;;;;5098323;28;20173;-50
2023/07/09 03:43:38;;;;;;;6.73;5.93;;;20.50;99.90;;;;;;5097792;28;20511;-52
2023/07/09 03:46:04;;;;;;;7.60;5.70;;;20.60;99.90;;;;;;5097160;28;20267;-52
2023/07/09 03:48:29;;;;;;;6.63;6.03;;;20.60;99.90;;;;;;5096355;28;20238;-51
2023/07/09 03:50:55;;;;;;;7.17;6.47;;;20.60;99.90;;;;;;5096134;28;20273;-50
2023/07/09 03:53:21;;;;;;;7.00;6.30;;;20.60;99.90;;;;;;5096913;28;20249;-51
2023/07/09 03:55:50;;;;;;;6.57;5.97;;;20.70;99.90;;;;;;5097298;28;20437;-53
2023/07/09 03:58:16;;;;;;;11.40;6.60;;;20.70;99.90;;;;;;5097405;28;20207;-52
2023/07/09 04:00:42;;;;;;;6.60;6.00;;;20.70;99.90;;;;;;5097039;28;20746;-57
2023/07/09 04:03:08;;;;;;;7.60;6.00;;;20.70;99.90;;;;;;5097791;28;20187;-58
2023/07/09 04:05:34;;;;;;;6.00;5.40;;;20.80;99.90;;;;;;5096854;28;20207;-55
2023/07/09 04:07:59;;;;;;;6.17;5.57;;;20.90;99.90;;;;;;5097831;28;20454;-57
2023/07/09 04:10:25;;;;;;;5.60;4.87;;;20.90;96.70;;;;;;5097352;28;20230;-57
2023/07/09 04:12:51;;;;;;;7.87;5.80;;;20.90;99.90;;;;;;5096762;28;20538;-56
2023/07/09 04:15:16;;;;;;;6.50;5.90;;;20.90;66.50;;;;;;5097181;28;20275;-57
2023/07/09 04:17:42;;;;;;;6.17;5.57;;;21.00;1.00;;;;;;5097024;28;20172;-57
2023/07/09 04:20:09;;;;;;;8.27;6.00;;;21.10;1.00;;;;;;5096702;28;20195;-58
2023/07/09 04:22:36;;;;;;;6.40;5.43;;;21.10;1.00;;;;;;5095909;28;20199;-56
2023/07/09 04:25:03;;;;;;;6.30;5.53;;;21.20;1.00;;;;;;5098015;28;20771;-58
2023/07/09 04:27:29;;;;;;;7.03;6.33;;;21.20;1.00;;;;;;5095873;28;20496;-58
2023/07/09 04:29:54;;;;;;;6.67;6.07;;;21.20;1.00;;;;;;5097092;28;20513;-56
2023/07/09 04:32:21;;;;;;;6.83;5.73;;;21.30;1.00;;;;;;5097272;28;20488;-57
2023/07/09 04:34:47;;;;;;;5.90;5.30;;;21.40;1.00;;;;;;5097129;28;20183;-55
2023/07/09 04:37:13;;;;;;;7.83;6.90;;;21.40;1.00;;;;;;5097419;28;20677;-56
2023/07/09 04:39:39;;;;;;;7.47;6.67;;;21.50;1.00;;;;;;5097803;28;20422;-58
2023/07/09 04:42:06;;;;;;;6.53;5.90;;;21.50;1.00;;;;;;5097975;28;20415;-57
2023/07/09 04:44:32;;;;;;;6.77;6.00;;;21.50;1.00;;;;;;5096115;28;20407;-57
2023/07/09 04:46:57;;;;;;;6.60;5.90;;;21.50;1.00;;;;;;5095974;28;20423;-58
2023/07/09 04:49:23;;;;;;;6.50;5.90;;;21.60;1.00;;;;;;5096417;28;20439;-58
2023/07/09 04:51:48;;;;;;;8.70;6.50;;;21.70;1.00;;;;;;5097071;28;20184;-57
2023/07/09 04:54:14;;;;;;;6.20;5.60;;;21.70;1.00;;;;;;5095723;28;20196;-49
2023/07/09 04:56:44;;;;;;;6.87;6.17;;;21.80;1.00;;;;;;5096423;28;20221;-48
2023/07/09 04:59:09;;;;;;;6.03;5.53;;;21.80;1.00;;;;;;5096258;28;20417;-50
2023/07/09 05:01:35;;;;;;;7.23;6.30;;;21.80;1.00;;;;;;5096124;28;20612;-50
2023/07/09 05:04:00;;;;;;;8.13;6.70;;;21.80;1.00;;;;;;5096279;28;20169;-50
2023/07/09 05:06:26;;;;;;;6.50;6.00;;;21.80;99.90;;;;;;5097409;28;20179;-52
2023/07/09 05:08:52;;;;;;;7.73;6.87;;;21.80;99.90;;;;;;5096624;28;20515;-50
2023/07/09 05:11:17;;;;;;;6.90;5.90;;;21.80;99.90;;;;;;5097537;28;20291;-49
2023/07/09 05:13:43;;;;;;;6.70;6.00;;;21.90;99.90;;;;;;5096878;28;20172;-47
2023/07/09 05:16:09;;;;;;;8.00;6.23;;;21.90;99.90;;;;;;5096456;28;20212;-50
2023/07/09 05:18:34;;;;;;;6.57;5.87;;;22.00;99.90;;;;;;5096455;28;20551;-48
2023/07/09 05:21:00;;;;;;;7.57;6.77;;;22.00;99.90;;;;;;5097640;28;20192;-51
2023/07/09 05:23:26;;;;;;;7.33;6.20;;;22.10;99.90;;;;;;5096623;28;20396;-48
2023/07/09 05:26:01;;;;;;;7.53;6.80;;;22.10;99.90;;;;;;5096370;28;20172;-50
2023/07/09 05:28:28;;;;;;;6.93;6.23;;;22.10;99.90;;;;;;5095715;28;20555;-49
2023/07/09 05:30:53;;;;;;;7.47;5.93;;;22.20;99.90;;;;;;5095277;28;20761;-49
2023/07/09 05:33:19;;;;;;;6.53;5.87;;;22.20;99.90;;;;;;5096504;28;20441;-51
2023/07/09 05:35:45;;;;;;;8.07;7.30;;;22.30;99.90;;;;;;5096376;28;20454;-51
2023/07/09 05:38:12;;;;;;;7.43;6.30;;;22.30;99.90;;;;;;5097132;28;20203;-52
2023/07/09 05:40:38;;;;;;;7.03;6.37;;;22.30;99.90;;;;;;5096475;28;20427;-51
2023/07/09 05:43:04;;;;;;;7.23;6.40;;;22.40;99.90;;;;;;5095570;28;20487;-50
2023/07/09 05:45:30;;;;;;;6.50;5.90;;;22.50;99.90;;;;;;5095597;28;20214;-49
2023/07/09 05:47:58;;;;;;;6.80;5.90;;;22.60;99.90;;;;;;5094511;28;20180;-50
2023/07/09 05:50:23;;;;;;;9.53;7.43;;;22.80;99.90;;;;;;5096610;28;20525;-48
2023/07/09 05:52:49;;;;;;;6.47;5.97;;;22.80;90.90;;;;;;5096768;28;20517;-51
2023/07/09 05:55:15;;;;;;;6.50;5.90;;;23.00;79.30;;;;;;5095075;28;20176;-49
2023/07/09 05:57:40;;;;;;;8.03;6.17;;;23.10;58.80;;;;;;5095841;28;20200;-49
2023/07/09 06:00:08;;;;;;;6.13;5.57;;;23.20;42.80;;;;;;5096335;28;20184;-49
2023/07/09 06:02:33;;;;;;;6.63;6.00;;;23.40;26.30;;;;;;5094015;28;20229;-49
2023/07/09 06:04:59;;;;;;;6.37;5.87;;;23.60;4.50;;;;;;5094601;28;20510;-50
2023/07/09 06:07:30;;;;;;;7.13;6.37;;;23.80;1.00;;;;;;5095272;28;20184;-49
2023/07/09 06:09:57;;;;;;;8.03;6.40;;;23.90;1.00;;;;;;5094302;28;20339;-49
2023/07/09 06:12:23;;;;;;;7.93;6.93;;;24.10;1.00;;;;;;5096049;28;20823;-50
2023/07/09 06:14:48;;;;;;;8.73;6.63;;;24.30;1.00;;;;;;5094699;28;20406;-52
2023/07/09 06:17:14;;;;;;;6.50;5.90;;;24.50;1.00;;;;;;5095550;28;20414;-51
2023/07/09 06:19:39;;;;;;;7.10;6.50;;;24.60;1.00;;;;;;5095646;28;20183;-48
2023/07/09 06:22:05;;;;;;;7.30;5.77;;;24.80;1.00;;;;;;5095089;28;20404;-50
2023/07/09 06:24:31;;;;;;;7.30;6.60;;;24.90;1.00;;;;;;5093568;28;20195;-49
2023/07/09 06:26:57;;;;;;;8.20;6.73;;;25.10;1.00;;;;;;5094061;28;20453;-47
2023/07/09 06:29:23;;;;;;;8.10;6.20;;;25.20;1.00;;;;;;5094843;28;20235;-49
2023/07/09 06:31:48;;;;;;;7.23;6.30;;;25.30;1.00;;;;;;5095456;28;20454;-49
2023/07/09 06:34:14;;;;;;;6.70;6.00;;;25.40;1.00;;;;;;5093932;28;20692;-50
2023/07/09 06:36:39;;;;;;;7.00;5.97;;;25.50;1.00;;;;;;5092193;28;20172;-49
2023/07/09 06:39:05;;;;;;;6.83;6.20;;;25.60;1.00;;;;;;5092245;28;20195;-51
2023/07/09 06:41:32;;;;;;;6.77;5.70;;;25.60;1.00;;;;;;5092466;28;20249;-54
2023/07/09 06:43:58;;;;;;;7.27;6.37;;;25.60;1.00;;;;;;5093114;28;20454;-50
2023/07/09 06:46:23;;;;;;;7.10;6.37;;;25.80;1.00;;;;;;5094495;28;20906;-50
2023/07/09 06:48:49;;;;;;;7.50;6.13;;;25.80;1.00;;;;;;5098875;28;20303;-48
2023/07/09 06:51:15;;;;;;;7.00;6.40;;;26.00;1.00;;;;;;5098940;28;20208;-50
2023/07/09 06:53:42;;;;;;;7.83;6.63;;;26.30;1.00;;;;;;5097415;28;20550;-48
2023/07/09 06:56:08;;;;;;;8.37;6.53;;;26.60;1.00;;;;;;5097610;28;20161;-49
2023/07/09 06:58:36;;;;;;;6.27;5.67;;;26.80;1.00;;;;;;5098970;28;20433;-50
2023/07/09 07:01:03;;;;;;;6.57;5.30;;;27.00;1.00;;;;;;5097356;28;20827;-49
2023/07/09 07:03:29;;;;;;;6.37;5.77;;;27.20;1.00;;;;;;5098170;28;20663;-50
2023/07/09 07:05:55;;;;;;;8.73;6.90;;;27.50;1.00;;;;;;5099184;28;20677;-49
2023/07/09 07:08:23;;;;;;;6.80;6.10;;;27.80;1.00;;;;;;5098694;28;20406;-49
2023/07/09 07:10:50;;;;;;;7.10;6.40;;;28.00;1.00;;;;;;5098496;28;20502;-49
2023/07/09 07:13:16;;;;;;;6.07;5.57;;;28.00;1.00;;;;;;5097732;28;20501;-49
2023/07/09 07:15:44;;;;;;;6.20;5.67;;;28.20;1.00;;;;;;5098145;28;20816;-49
2023/07/09 07:18:09;;;;;;;6.10;5.50;;;28.40;1.00;;;;;;5095774;28;20420;-51
2023/07/09 07:20:35;;;;;;;6.40;5.60;;;28.60;1.00;;;;;;5096649;28;20835;-50
2023/07/09 07:23:01;;;;;;;5.83;5.33;;;28.50;1.00;;;;;;5098272;28;20306;-51
2023/07/09 07:25:26;;;;;;;5.63;5.10;;;28.60;1.00;;;;;;5097986;28;20594;-50
2023/07/09 07:27:53;;;;;;;7.97;6.53;;;28.90;1.00;;;;;;5097295;28;20230;-49
2023/07/09 07:30:18;;;;;;;8.53;5.20;;;29.10;1.00;;;;;;5097533;28;20224;-50
2023/07/09 07:32:46;;;;;;;6.00;5.40;;;29.30;1.00;;;;;;5095920;28;20416;-49
2023/07/09 07:35:13;;;;;;;5.90;5.40;;;29.40;1.00;;;;;;5096317;28;20172;-48
2023/07/09 07:37:41;;;;;;;6.40;5.80;;;29.80;1.00;;;;;;5094121;28;20516;-51
2023/07/09 07:40:08;;;;;;;5.90;5.30;;;30.20;1.00;;;;;;5096583;28;20678;-48
2023/07/09 07:42:34;;;;;;;6.07;5.47;;;30.30;1.00;;;;;;5095107;28;20438;-49
2023/07/09 07:44:59;;;;;;;6.40;5.20;;;30.50;1.00;;;;;;5094243;28;20436;-48
2023/07/09 07:47:26;;;;;;;6.33;5.30;;;30.70;1.00;;;;;;5083775;28;20174;-48
2023/07/09 07:49:52;;;;;;;5.10;4.70;;;31.00;1.00;;;;;;5077941;28;20208;-49
2023/07/09 07:52:18;;;;;;;8.07;5.90;;;31.30;1.00;;;;;;5075568;28;20496;-49
2023/07/09 07:54:44;;;;;;;5.90;5.27;;;31.60;1.00;;;;;;5078200;28;20427;-50
2023/07/09 07:57:10;;;;;;;5.73;5.07;;;31.90;1.00;;;;;;5076598;28;20189;-50
2023/07/09 07:59:36;;;;;;;5.33;4.83;;;32.10;1.00;;;;;;5077408;28;20687;-51
2023/07/09 08:02:03;;;;;;;6.50;5.20;;;32.50;1.00;;;;;;5077873;28;20390;-51
2023/07/09 08:04:29;;;;;;;5.20;4.80;;;32.80;1.00;;;;;;5076047;28;20725;-49
2023/07/09 08:06:55;;;;;;;5.90;5.40;;;32.90;1.00;;;;;;5076831;28;20470;-51
2023/07/09 08:09:20;;;;;;;6.37;5.77;;;32.90;1.00;;;;;;5077655;28;20181;-48
2023/07/09 08:11:46;;;;;;;7.73;6.20;;;33.10;1.00;;;;;;5077089;28;20805;-51
2023/07/09 08:14:12;;;;;;;5.73;5.23;;;33.40;1.00;;;;;;5076334;28;20169;-49
2023/07/09 08:16:38;;;;;;;6.13;5.53;;;33.60;1.00;;;;;;5090266;28;20184;-50
2023/07/09 08:19:04;;;;;;;5.83;5.27;;;33.80;1.00;;;;;;5089782;28;20434;-51
2023/07/09 08:21:29;;;;;;;6.40;5.00;;;34.00;1.00;;;;;;5097813;28;20416;-51
2023/07/09 08:23:55;;;;;;;5.87;5.27;;;34.00;1.00;;;;;;5096737;28;20396;-53
2023/07/09 08:26:20;;;;;;;6.87;6.13;;;34.20;1.00;;;;;;5097065;28;20218;-54
2023/07/09 08:28:46;;;;;;;10.67;6.77;;;34.30;1.00;;;;;;5096401;28;20275;-51
2023/07/09 08:31:12;;;;;;;7.33;6.00;;;34.30;1.00;;;;;;5095039;28;20280;-49
2023/07/09 08:33:37;;;;;;;6.17;5.50;;;34.30;1.00;;;;;;5096254;28;20427;-49
2023/07/09 08:36:03;;;;;;;7.33;6.07;;;34.30;1.00;;;;;;5095786;28;20187;-50
2023/07/09 08:38:29;;;;;;;6.10;5.50;;;34.60;1.00;;;;;;5095438;28;20424;-49
2023/07/09 08:41:02;;;;;;;6.60;6.00;;;34.70;1.00;;;;;;5094826;28;20393;-53
2023/07/09 08:44:06;;;;;;;5.53;4.70;;;34.80;1.00;;;;;;5093695;28;20572;-49
2023/07/09 08:46:41;;;;;;;6.40;5.40;;;34.70;1.00;;;;;;5092583;28;20432;-49
2023/07/09 08:49:15;;;;;;;5.93;5.40;;;34.70;1.00;;;;;;5095481;28;20422;-49
2023/07/09 08:51:43;;;;;;;6.30;5.60;;;34.40;1.00;;;;;;5095859;28;20568;-47
2023/07/09 08:54:15;;;;;;;5.70;5.07;;;34.60;1.00;;;;;;5095504;28;20499;-52
2023/07/09 08:56:41;;;;;;;7.77;6.00;;;34.80;1.00;;;;;;5094336;28;20827;-49
2023/07/09 08:59:09;;;;;;;6.13;5.50;;;34.40;1.00;;;;;;5096504;28;20414;-49
2023/07/09 09:01:39;;;;;;;5.97;5.47;;;34.10;1.00;;;;;;5096410;28;20245;-50
2023/07/09 09:04:24;;;;;;;5.50;4.47;;;34.30;1.00;;;;;;5095648;28;20426;-53
2023/07/09 09:06:59;;;;;;;6.53;5.40;;;34.30;1.00;;;;;;5093170;28;20556;-49
2023/07/09 09:09:37;;;;;;;5.90;5.30;;;34.00;1.00;;;;;;5094952;28;20430;-51
2023/07/09 09:12:28;;;;;;;5.50;5.00;;;34.40;1.00;;;;;;5094875;28;20434;-53
2023/07/09 09:15:17;;;;;;;6.13;5.63;;;34.80;1.00;;;;;;5095359;28;20369;-51
2023/07/09 09:17:43;;;;;;;5.50;5.03;;;34.90;1.00;;;;;;5093812;28;20393;-51
2023/07/09 09:20:17;;;;;;;5.70;4.80;;;35.40;1.00;;;;;;5095178;28;20410;-51
2023/07/09 09:22:48;;;;;;;5.53;5.03;;;35.80;1.00;;;;;;5092294;28;20633;-54
2023/07/09 09:25:28;;;;;;;5.40;4.93;;;36.20;1.00;;;;;;5093661;28;20441;-49
2023/07/09 09:27:54;;;;;;;5.90;5.40;;;36.20;1.00;;;;;;5093323;28;20521;-53
2023/07/09 09:30:25;;;;;;;6.10;5.50;;;36.10;1.00;;;;;;5094861;28;20478;-50
2023/07/09 09:32:55;;;;;;;5.70;5.20;;;35.90;1.00;;;;;;5093466;28;20390;-54
2023/07/09 09:35:30;;;;;;;6.33;5.57;;;35.60;1.00;;;;;;5095493;28;20999;-51
2023/07/09 09:37:57;;;;;;;5.43;4.90;;;35.50;1.00;;;;;;5094000;28;20401;-49
2023/07/09 09:40:25;;;;;;;5.97;5.47;;;35.70;1.00;;;;;;5094466;28;20401;-49
2023/07/09 09:42:53;;;;;;;6.23;5.63;;;36.00;1.00;;;;;;5095469;28;20401;-50
2023/07/09 09:45:21;;;;;;;5.33;4.83;;;36.00;1.00;;;;;;5094484;28;20411;-48
2023/07/09 09:47:47;;;;;;;6.67;5.80;;;35.90;1.00;;;;;;5092284;28;20406;-52
2023/07/09 09:50:21;;;;;;;5.70;5.10;;;36.00;1.00;;;;;;5092884;28;20465;-52
2023/07/09 09:52:48;;;;;;;6.00;5.33;;;36.00;1.00;;;;;;5093455;28;20449;-48
2023/07/09 09:55:23;;;;;;;5.60;5.10;;;35.80;1.00;;;;;;5095561;28;20423;-50
2023/07/09 09:57:50;;;;;;;5.70;5.10;;;35.50;1.00;;;;;;5094748;28;20418;-50
2023/07/09 10:00:16;;;;;;;8.13;4.67;;;35.70;1.00;;;;;;5095448;28;20450;-52
2023/07/09 10:02:45;;;;;;;5.13;4.60;;;35.90;1.00;;;;;;5094735;28;20435;-51
2023/07/09 10:05:21;;;;;;;7.23;4.93;;;35.90;1.00;;;;;;5095259;28;20407;-53
2023/07/09 10:08:09;;;;;;;6.30;5.17;;;35.60;1.00;;;;;;5093945;28;20422;-48
2023/07/09 10:10:34;;;;;;;6.13;5.53;;;35.50;1.00;;;;;;5092684;28;20444;-50
2023/07/09 10:13:12;;;;;;;6.13;5.37;;;35.70;1.00;;;;;;5093952;28;20954;-51
2023/07/09 10:15:59;;;;;;;7.83;4.77;;;35.80;1.00;;;;;;5093350;28;20236;-51
2023/07/09 10:18:44;;;;;;;5.70;5.00;;;35.70;1.00;;;;;;5091921;28;20416;-51
2023/07/09 10:21:33;;;;;;;5.20;4.70;;;35.70;1.00;;;;;;5094025;28;20423;-53
2023/07/09 10:24:35;;;;;;;9.77;5.57;;;36.30;1.00;;;;;;5091865;28;20413;-53
2023/07/09 10:27:11;;;;;;;5.40;4.90;;;37.00;1.00;;;;;;5067750;28;20792;-49
2023/07/09 10:30:01;;;;;;;5.10;4.70;;;37.50;1.00;;;;;;5073449;28;20868;-52
2023/07/09 10:32:37;;;;;;;5.90;5.13;;;37.70;1.00;;;;;;5072644;28;20451;-48
2023/07/09 10:35:08;;;;;;;6.10;5.20;;;38.10;1.00;;;;;;5073349;28;20422;-52
2023/07/09 10:37:52;;;;;;;6.30;5.70;;;38.10;1.00;;;;;;5073174;28;20518;-52
2023/07/09 10:40:25;;;;;;;5.83;4.73;;;37.80;1.00;;;;;;5074181;28;20424;-50
2023/07/09 10:42:55;;;;;;;4.77;4.37;;;37.80;1.00;;;;;;5057607;28;20517;-49
2023/07/09 10:45:34;;;;;;;5.60;4.80;;;37.40;1.00;;;;;;5072057;28;20482;-50
2023/07/09 10:48:04;;;;;;;5.77;4.60;;;37.60;1.00;;;;;;5071264;28;20457;-53
2023/07/09 10:50:41;;;;;;;5.73;4.90;;;37.50;1.00;;;;;;5074025;28;20495;-50
2023/07/09 10:53:30;;;;;;;5.90;5.27;;;37.50;1.00;;;;;;5073422;28;20428;-54
2023/07/09 10:56:16;;;;;;;6.27;5.10;;;37.70;1.00;;;;;;5073013;28;20430;-50
2023/07/09 10:58:44;;;;;;;5.20;4.40;;;38.10;1.00;;;;;;5071143;28;20431;-51
2023/07/09 11:01:12;;;;;;;5.93;5.27;;;38.20;1.00;;;;;;5070856;28;20423;-52
2023/07/09 11:03:54;;;;;;;9.40;4.93;;;38.10;1.00;;;;;;5072469;28;20431;-53
2023/07/09 11:06:27;;;;;;;4.90;4.37;;;37.70;1.00;;;;;;5071190;28;20423;-51
2023/07/09 11:08:53;;;;;;;5.90;4.60;;;37.50;1.00;;;;;;5072344;28;20698;-50
2023/07/09 11:11:22;;;;;;;6.70;4.70;;;37.90;1.00;;;;;;5054524;28;20485;-52
2023/07/09 11:13:53;;;;;;;7.20;5.03;;;37.70;1.00;;;;;;5071615;28;21090;-50
2023/07/09 11:16:32;;;;;;;6.20;4.90;;;37.50;1.00;;;;;;5071748;28;20429;-53
2023/07/09 11:19:02;;;;;;;4.97;4.47;;;37.40;1.00;;;;;;5072899;28;20440;-48
2023/07/09 11:21:28;;;;;;;6.00;5.23;;;37.50;1.00;;;;;;5072387;28;20500;-52
2023/07/09 11:23:59;;;;;;;5.77;5.17;;;37.50;1.00;;;;;;5072416;28;20427;-49
2023/07/09 11:26:30;;;;;;;6.47;5.80;;;37.70;1.00;;;;;;5071963;28;20419;-50
2023/07/09 11:29:02;;;;;;;5.97;5.47;;;37.60;1.00;;;;;;5071885;28;20419;-53
2023/07/09 11:31:47;;;;;;;7.47;5.80;;;37.50;1.00;;;;;;5073176;28;20528;-53
2023/07/09 11:34:12;;;;;;;5.90;5.17;;;37.40;1.00;;;;;;5074879;28;20434;-53
2023/07/09 11:36:49;;;;;;;6.17;5.50;;;37.00;1.00;;;;;;5077614;28;20419;-55
2023/07/09 11:39:39;;;;;;;5.67;4.97;;;37.50;1.00;;;;;;5076145;28;20259;-52
2023/07/09 11:42:29;;;;;;;6.20;5.57;;;37.90;1.00;;;;;;5075154;28;20423;-52
2023/07/09 11:45:07;;;;;;;6.17;5.27;;;38.50;1.00;;;;;;5077849;28;20422;-49
2023/07/09 11:47:45;;;;;;;6.30;5.70;;;39.40;1.00;;;;;;5076505;28;20407;-50
2023/07/09 11:50:21;;;;;;;7.40;6.13;;;39.70;1.00;;;;;;5078075;28;20960;-52
2023/07/09 11:53:32;;;;;;;5.83;4.87;;;39.90;1.00;;;;;;5077695;28;20487;-55
2023/07/09 11:55:58;;;;;;;7.07;6.00;;;40.50;1.00;;;;;;5060636;28;20435;-53
2023/07/09 11:58:24;;;;;;;7.53;5.83;;;40.30;1.00;;;;;;5075795;28;20537;-50
2023/07/09 12:00:55;;;;;;;5.77;5.17;;;40.70;1.00;;;;;;5075180;28;20185;-51
2023/07/09 12:03:24;;;;;;;6.17;5.50;;;41.20;1.00;;;;;;5073704;28;20310;-51
2023/07/09 12:05:52;;;;;;;5.40;4.90;;;41.90;1.00;;;;;;5075511;28;20546;-53
2023/07/09 12:08:18;;;;;;;6.17;5.57;;;41.50;1.00;;;;;;5074318;28;20422;-48
2023/07/09 12:10:44;;;;;;;6.23;5.73;;;41.50;1.00;;;;;;5074503;28;20467;-50
2023/07/09 12:13:12;;;;;;;6.83;5.80;;;41.40;1.00;;;;;;5073947;28;20868;-50
2023/07/09 12:15:40;;;;;;;5.00;4.60;;;41.50;1.00;;;;;;5074177;28;20415;-51
2023/07/09 12:18:14;;;;;;;6.60;6.00;;;40.90;1.00;;;;;;5074390;28;20956;-51
2023/07/09 12:20:41;;;;;;;6.83;5.50;;;40.10;1.00;;;;;;5075497;28;20746;-50
2023/07/09 12:23:31;;;;;;;6.83;5.47;;;39.70;1.00;;;;;;5075503;28;20435;-49
2023/07/09 12:26:00;;;;;;;5.43;4.93;;;39.70;1.00;;;;;;5075347;28;21072;-48
2023/07/09 12:28:27;;;;;;;6.27;5.20;;;39.60;1.00;;;;;;5074956;28;20450;-50
2023/07/09 12:30:53;;;;;;;8.70;5.30;;;39.70;1.00;;;;;;5075505;28;20475;-52
2023/07/09 12:33:28;;;;;;;7.00;6.30;;;40.10;1.00;;;;;;5076328;28;20691;-52
2023/07/09 12:35:59;;;;;;;6.13;5.63;;;40.00;1.00;;;;;;5077358;28;20180;-50
2023/07/09 12:38:27;;;;;;;6.40;4.70;;;40.30;1.00;;;;;;5075625;28;20416;-49
2023/07/09 12:40:54;;;;;;;6.33;5.63;;;40.80;1.00;;;;;;5075761;28;20419;-50
2023/07/09 12:43:25;;;;;;;6.93;5.57;;;41.50;1.00;;;;;;5057056;28;20546;-49
2023/07/09 12:45:56;;;;;;;6.47;5.50;;;41.70;1.00;;;;;;5074270;28;20430;-52
2023/07/09 12:48:25;;;;;;;6.60;5.33;;;42.00;1.00;;;;;;5074749;28;21104;-54
2023/07/09 12:50:51;;;;;;;7.00;6.30;;;42.60;1.00;;;;;;5075279;28;20550;-50
2023/07/09 12:53:21;;;;;;;5.53;5.03;;;43.40;1.00;;;;;;5075064;28;20411;-50
2023/07/09 12:55:50;;;;;;;6.67;6.07;;;43.70;1.00;;;;;;5076148;28;20423;-51
2023/07/09 12:58:22;;;;;;;7.90;6.50;;;44.10;1.00;;;;;;5075848;28;20533;-53
2023/07/09 13:00:53;;;;;;;6.73;6.00;;;44.40;1.00;;;;;;5075302;28;20427;-50